Time;durP1;ratioP1;P1;durP2;ratioP2;P2;SDS_P1;SDS_P2;PMS_P1;PMS_P2;Temp;Humidity;BMP_temperature;BMP_pressure;BME280_temperature;BME280_humidity;BME280_pressure;Samples;Min_cycle;Max_cycle;Signal;HPM_P1;HPM_P2
2021/11/28 00:00:27;;;;;;;17.67;10.88;;;;;;;8.86;100.00;99215.55;1705854;84;21307;-79
2021/11/28 00:03:34;;;;;;;27.40;11.00;;;;;;;8.90;100.00;99213.61;1705554;84;21307;-79
2021/11/28 00:06:51;;;;;;;18.15;10.28;;;;;;;8.94;100.00;99216.28;1705824;84;21319;-79
2021/11/28 00:13:10;;;;;;;24.95;10.72;;;;;;;8.96;100.00;99216.08;1704303;83;21375;-80
2021/11/28 00:16:16;;;;;;;20.20;9.63;;;;;;;8.98;100.00;99209.06;1705873;84;21879;-80
2021/11/28 00:19:21;;;;;;;16.62;9.48;;;;;;;9.00;100.00;99205.64;1705787;84;21830;-80
2021/11/28 00:22:27;;;;;;;23.95;11.00;;;;;;;8.97;100.00;99204.12;1705786;84;21866;-80
2021/11/28 00:25:33;;;;;;;23.18;11.97;;;;;;;8.92;100.00;99203.34;1705599;84;21355;-80
2021/11/28 00:28:39;;;;;;;19.92;10.95;;;;;;;8.95;100.00;99224.79;1704651;84;21934;-80
2021/11/28 00:31:45;;;;;;;25.08;10.58;;;;;;;8.98;100.00;99229.52;1705850;84;21280;-80
2021/11/28 00:34:51;;;;;;;24.80;11.15;;;;;;;9.05;100.00;99225.00;1704912;84;21346;-80
2021/11/28 00:37:58;;;;;;;23.47;10.55;;;;;;;9.09;100.00;99229.88;1705494;84;21232;-80
2021/11/28 00:41:03;;;;;;;17.00;10.40;;;;;;;9.03;100.00;99227.90;1706366;84;21326;-80
2021/11/28 00:44:09;;;;;;;15.98;9.95;;;;;;;9.01;100.00;99227.26;1705307;84;21351;-79
2021/11/28 00:47:15;;;;;;;23.40;11.33;;;;;;;8.96;100.00;99230.56;1705981;84;21744;-79
2021/11/28 00:50:26;;;;;;;21.93;11.45;;;;;;;8.92;100.00;99229.25;1705856;84;21870;-79
2021/11/28 00:53:30;;;;;;;23.70;11.22;;;;;;;8.94;100.00;99227.20;1706144;84;21320;-79
2021/11/28 00:56:36;;;;;;;20.37;12.15;;;;;;;8.93;100.00;99227.37;1705867;84;21197;-79
2021/11/28 00:59:41;;;;;;;18.95;12.13;;;;;;;8.93;100.00;99229.57;1705847;84;21598;-79
2021/11/28 01:02:47;;;;;;;22.05;12.20;;;;;;;8.96;100.00;99231.92;1704528;84;21833;-79
2021/11/28 01:05:54;;;;;;;22.77;13.70;;;;;;;9.01;100.00;99230.51;1704682;84;21310;-79
2021/11/28 01:09:02;;;;;;;30.47;12.93;;;;;;;9.04;100.00;99230.14;1704915;84;21212;-79
2021/11/28 01:12:08;;;;;;;26.07;13.65;;;;;;;9.03;100.00;99227.05;1705822;84;21252;-79
2021/11/28 01:15:16;;;;;;;19.90;12.05;;;;;;;8.99;100.00;99230.71;1705069;83;21949;-80
2021/11/28 01:18:23;;;;;;;23.05;13.78;;;;;;;8.98;100.00;99229.52;1705534;84;21894;-80
2021/11/28 01:21:28;;;;;;;28.27;14.33;;;;;;;8.96;100.00;99233.29;1704785;84;21262;-79
2021/11/28 01:24:35;;;;;;;31.55;13.78;;;;;;;8.99;100.00;99232.56;1704108;84;21315;-80
2021/11/28 01:27:40;;;;;;;24.20;14.65;;;;;;;9.04;100.00;99232.34;1705356;84;21379;-79
2021/11/28 01:30:49;;;;;;;24.15;12.95;;;;;;;9.08;100.00;99223.23;1680526;84;21209;-79
2021/11/28 01:33:54;;;;;;;28.87;15.60;;;;;;;9.12;100.00;99217.72;1705992;84;21859;-80
2021/11/28 01:37:00;;;;;;;25.30;14.43;;;;;;;9.13;100.00;99216.18;1705499;84;21315;-79
2021/11/28 01:40:16;;;;;;;27.05;13.43;;;;;;;9.13;100.00;99216.18;1705376;84;21761;-80
2021/11/28 01:43:21;;;;;;;25.12;13.88;;;;;;;9.13;100.00;99223.52;1705444;84;21404;-80
2021/11/28 01:46:27;;;;;;;28.47;15.10;;;;;;;9.06;100.00;99232.98;1704329;84;21338;-79
2021/11/28 01:49:33;;;;;;;24.12;13.65;;;;;;;9.04;100.00;99234.23;1705711;84;21359;-80
2021/11/28 01:52:39;;;;;;;34.05;15.48;;;;;;;9.03;100.00;99239.33;1705417;84;21791;-80
2021/11/28 01:55:48;;;;;;;28.00;15.38;;;;;;;9.02;100.00;99237.13;1704766;84;21339;-80
2021/11/28 01:59:01;;;;;;;29.55;15.72;;;;;;;9.07;100.00;99240.64;1704330;84;21882;-80
2021/11/28 02:02:09;;;;;;;28.25;14.03;;;;;;;9.13;100.00;99243.98;1705469;84;21367;-79
2021/11/28 02:05:16;;;;;;;22.13;12.58;;;;;;;9.19;100.00;99253.59;1705008;84;21382;-79
2021/11/28 02:08:22;;;;;;;26.50;13.48;;;;;;;9.22;100.00;99250.98;1704195;84;21865;-79
2021/11/28 02:11:27;;;;;;;29.23;15.00;;;;;;;9.21;100.00;99250.66;1704216;84;21320;-79
2021/11/28 02:14:32;;;;;;;33.75;16.52;;;;;;;9.18;100.00;99248.34;1704971;84;21355;-79
2021/11/28 02:17:38;;;;;;;37.03;17.37;;;;;;;9.21;100.00;99262.94;1705394;84;21411;-80
2021/11/28 02:20:48;;;;;;;29.27;15.23;;;;;;;9.19;100.00;99255.48;1705369;84;21200;-79
2021/11/28 02:23:57;;;;;;;27.87;13.72;;;;;;;9.24;100.00;99254.37;1703918;84;21252;-79
2021/11/28 02:27:03;;;;;;;28.40;15.23;;;;;;;9.30;100.00;99245.93;1704160;84;21260;-79
2021/11/28 02:30:09;;;;;;;24.05;13.98;;;;;;;9.31;100.00;99248.45;1704729;84;21771;-79
2021/11/28 02:33:16;;;;;;;29.87;15.70;;;;;;;9.34;100.00;99251.33;1705465;84;21319;-79
2021/11/28 02:36:21;;;;;;;27.20;15.85;;;;;;;9.33;100.00;99255.95;1704094;84;21355;-79
2021/11/28 02:39:28;;;;;;;28.67;15.43;;;;;;;9.30;100.00;99258.21;1703994;84;21363;-79
2021/11/28 02:42:34;;;;;;;27.82;14.75;;;;;;;9.31;100.00;99251.70;1705798;84;21855;-79
2021/11/28 02:45:40;;;;;;;24.00;12.33;;;;;;;9.35;100.00;99255.73;1704665;84;21942;-79
2021/11/28 02:48:47;;;;;;;19.45;12.13;;;;;;;9.36;100.00;99260.16;1703992;84;21204;-80
2021/11/28 02:51:52;;;;;;;22.15;12.63;;;;;;;9.32;100.00;99257.52;1705419;84;21358;-80
2021/11/28 02:54:58;;;;;;;20.75;12.43;;;;;;;9.28;100.00;99257.05;1705417;84;21315;-80
2021/11/28 02:58:05;;;;;;;17.52;9.83;;;;;;;9.22;100.00;99249.61;1705476;84;22581;-80
2021/11/28 03:01:23;;;;;;;22.42;10.20;;;;;;;9.23;100.00;99262.24;1704411;84;21775;-80
2021/11/28 03:04:38;;;;;;;13.03;8.03;;;;;;;9.24;100.00;99263.93;1685020;84;21354;-80
2021/11/28 03:07:45;;;;;;;18.05;9.50;;;;;;;9.23;100.00;99273.68;1704130;84;21209;-80
2021/11/28 03:10:59;;;;;;;14.05;8.38;;;;;;;9.18;100.00;99271.01;1687210;84;21845;-80
2021/11/28 03:14:05;;;;;;;20.00;10.40;;;;;;;9.13;100.00;99269.37;1703867;84;21738;-80
2021/11/28 03:17:10;;;;;;;15.48;8.65;;;;;;;9.09;100.00;99267.23;1705158;83;21857;-79
2021/11/28 03:20:16;;;;;;;17.60;9.43;;;;;;;9.12;100.00;99273.64;1705904;84;21248;-79
2021/11/28 03:23:22;;;;;;;19.62;9.85;;;;;;;9.13;100.00;99287.63;1706417;84;21208;-79
2021/11/28 03:26:29;;;;;;;16.75;8.88;;;;;;;9.16;100.00;99277.16;1705643;84;21314;-79
2021/11/28 03:29:34;;;;;;;18.25;9.15;;;;;;;9.19;100.00;99270.48;1705992;84;21237;-79
2021/11/28 03:33:00;;;;;;;16.73;9.33;;;;;;;9.15;100.00;99274.11;1678065;85;21808;-79
2021/11/28 03:36:14;;;;;;;14.80;8.10;;;;;;;9.09;100.00;99278.98;1684835;85;21347;-79
2021/11/28 03:39:20;;;;;;;19.25;9.05;;;;;;;9.01;100.00;99285.06;1707052;84;21327;-79
2021/11/28 03:42:27;;;;;;;18.07;9.70;;;;;;;8.94;100.00;99296.74;1683877;85;21311;-79
2021/11/28 03:45:33;;;;;;;16.02;9.03;;;;;;;8.89;100.00;99292.37;1682906;85;21334;-79
2021/11/28 03:48:38;;;;;;;21.90;9.35;;;;;;;8.85;100.00;99288.34;1683896;85;21310;-79
2021/11/28 03:51:45;;;;;;;15.60;9.48;;;;;;;8.82;100.00;99296.05;1683934;85;21203;-79
2021/11/28 03:54:52;;;;;;;15.23;9.73;;;;;;;8.80;100.00;99294.00;1706750;84;21255;-79
2021/11/28 03:57:58;;;;;;;17.73;10.60;;;;;;;8.77;100.00;99300.70;1682911;85;21953;-79
2021/11/28 04:01:06;;;;;;;19.35;10.88;;;;;;;8.72;100.00;99297.70;1714239;83;21342;-79
2021/11/28 04:04:11;;;;;;;22.07;10.72;;;;;;;8.70;100.00;99310.17;1705745;84;22550;-79
2021/11/28 04:07:31;;;;;;;16.80;9.28;;;;;;;8.72;100.00;99305.03;1704442;84;21319;-79
2021/11/28 04:10:40;;;;;;;18.48;10.30;;;;;;;8.73;100.00;99302.63;1706065;84;21306;-79
2021/11/28 04:13:46;;;;;;;18.62;10.00;;;;;;;8.75;100.00;99300.06;1706061;84;21217;-79
2021/11/28 04:16:52;;;;;;;14.58;8.68;;;;;;;8.74;100.00;99299.70;1704791;84;21906;-79
2021/11/28 04:20:01;;;;;;;15.45;9.03;;;;;;;8.69;100.00;99305.72;1728259;83;21841;-79
2021/11/28 04:23:09;;;;;;;15.50;10.05;;;;;;;8.66;100.00;99303.39;1726770;83;21264;-79
2021/11/28 04:26:14;;;;;;;21.17;10.23;;;;;;;8.64;100.00;99295.06;1728882;83;21319;-79
2021/11/28 04:29:20;;;;;;;16.10;8.33;;;;;;;8.62;100.00;99306.69;1728164;83;21637;-79
2021/11/28 04:32:21;;;;;;;18.12;11.00;;;;;;;8.60;100.00;99304.64;1727495;83;21345;-79
2021/11/28 04:35:27;;;;;;;22.25;11.83;;;;;;;8.60;100.00;99297.31;1728167;83;21306;-79
2021/11/28 04:38:34;;;;;;;23.02;10.38;;;;;;;8.64;100.00;99305.97;1727948;83;21358;-79
2021/11/28 04:41:39;;;;;;;17.32;11.33;;;;;;;8.70;100.00;99303.84;1728188;83;21234;-79
2021/11/28 04:44:45;;;;;;;20.10;11.30;;;;;;;8.72;100.00;99307.23;1726932;83;21333;-79
2021/11/28 04:47:52;;;;;;;25.70;12.45;;;;;;;8.75;100.00;99313.69;1727217;83;21361;-79
2021/11/28 04:51:00;;;;;;;22.20;11.93;;;;;;;8.82;100.00;99311.05;1728099;83;21323;-79
2021/11/28 04:54:06;;;;;;;24.32;13.32;;;;;;;8.84;100.00;99305.70;1728287;83;21317;-79
2021/11/28 04:57:13;;;;;;;20.70;12.45;;;;;;;8.89;100.00;99307.87;1727086;83;21333;-80
2021/11/28 05:00:26;;;;;;;23.47;10.68;;;;;;;8.91;100.00;99303.09;1727117;83;21208;-79
2021/11/28 05:03:31;;;;;;;32.25;13.83;;;;;;;8.91;100.00;99305.81;1703224;83;21378;-79
2021/11/28 05:06:56;;;;;;;20.17;11.15;;;;;;;8.85;100.00;99300.61;1726750;83;21223;-79
2021/11/28 05:10:03;;;;;;;23.87;13.38;;;;;;;8.87;100.00;99310.80;1728173;83;21861;-79
2021/11/28 05:13:10;;;;;;;25.20;13.85;;;;;;;8.85;100.00;99312.88;1728277;83;21314;-79
2021/11/28 05:16:16;;;;;;;22.85;13.13;;;;;;;8.87;100.00;99315.41;1728162;83;21310;-79
2021/11/28 05:19:26;;;;;;;;;;;;;;;8.88;100.00;99326.11;1729120;82;21834;-79
2021/11/28 05:22:49;;;;;;;19.85;11.43;;;;;;;8.85;100.00;99329.76;1725822;83;20219;-79
2021/11/28 05:25:54;;;;;;;23.22;14.03;;;;;;;8.77;100.00;99340.76;1726920;83;21326;-79
2021/11/28 05:29:00;;;;;;;25.52;13.32;;;;;;;8.73;100.00;99343.00;1727354;83;21187;-79
2021/11/28 05:32:07;;;;;;;22.70;13.58;;;;;;;8.72;100.00;99345.93;1728010;83;21207;-79
2021/11/28 05:35:17;;;;;;;22.20;14.30;;;;;;;8.69;100.00;99339.80;1712465;83;21203;-80
2021/11/28 05:38:25;;;;;;;21.45;14.33;;;;;;;8.66;100.00;99336.11;1725505;83;21778;-80
2021/11/28 05:41:30;;;;;;;17.92;12.50;;;;;;;8.63;100.00;99335.63;1728188;83;21263;-80
2021/11/28 05:44:36;;;;;;;19.25;13.03;;;;;;;8.59;100.00;99331.58;1727562;83;21349;-80
2021/11/28 05:48:00;;;;;;;16.05;12.03;;;;;;;8.57;100.00;99330.94;1727177;83;21231;-80
2021/11/28 05:51:23;;;;;;;18.75;13.20;;;;;;;8.57;100.00;99332.30;1728237;83;21203;-80
2021/11/28 05:54:30;;;;;;;16.60;12.33;;;;;;;8.57;100.00;99333.66;1728238;83;21317;-80
2021/11/28 05:57:37;;;;;;;21.35;14.43;;;;;;;8.57;100.00;99342.68;1728741;83;21362;-80
2021/11/28 06:00:42;;;;;;;21.50;15.00;;;;;;;8.57;100.00;99339.11;1728235;83;21927;-79
2021/11/28 06:03:49;;;;;;;21.80;15.40;;;;;;;8.56;100.00;99339.63;1742575;81;21710;-79
2021/11/28 06:07:05;;;;;;;29.57;18.40;;;;;;;8.56;100.00;99336.91;1702362;82;21408;-80
2021/11/28 06:10:12;;;;;;;28.32;18.52;;;;;;;8.57;100.00;99333.14;1694565;82;21406;-79
2021/11/28 06:13:17;;;;;;;32.67;20.43;;;;;;;8.64;100.00;99335.95;1721105;81;21175;-79
2021/11/28 06:16:34;;;;;;;27.55;17.80;;;;;;;8.65;100.00;99335.75;1729332;82;21208;-79
2021/11/28 06:19:58;;;;;;;30.75;18.20;;;;;;;8.63;100.00;99339.72;1719701;81;21249;-79
2021/11/28 06:23:24;;;;;;;30.97;17.82;;;;;;;8.56;100.00;99340.13;1697343;83;21171;-79
2021/11/28 06:26:29;;;;;;;35.35;17.62;;;;;;;8.52;100.00;99349.73;1719965;82;21352;-79
2021/11/28 06:29:35;;;;;;;27.85;17.15;;;;;;;8.48;100.00;99347.05;1690283;84;21881;-79
2021/11/28 06:32:42;;;;;;;39.25;23.12;;;;;;;8.43;100.00;99355.78;1716899;81;21303;-79
2021/11/28 06:35:51;;;;;;;28.30;18.55;;;;;;;8.40;100.00;99365.67;1699764;83;21787;-79
2021/11/28 06:38:58;;;;;;;33.18;18.77;;;;;;;8.42;100.00;99352.20;1702739;83;21369;-79
2021/11/28 06:42:04;;;;;;;28.62;17.30;;;;;;;8.45;100.00;99349.09;1706196;83;21221;-79
2021/11/28 06:45:14;;;;;;;27.87;17.98;;;;;;;8.48;100.00;99347.05;1707658;82;21243;-79
2021/11/28 06:48:19;;;;;;;22.70;14.73;;;;;;;8.50;100.00;99341.72;1707068;82;21209;-79
2021/11/28 06:51:26;;;;;;;22.95;15.70;;;;;;;8.51;100.00;99328.42;1695367;81;21289;-79
2021/11/28 06:54:43;;;;;;;22.32;14.65;;;;;;;8.55;100.00;99324.81;1711866;82;21707;-80
2021/11/28 06:57:50;;;;;;;27.85;14.87;;;;;;;8.57;100.00;99317.30;1705256;83;21752;-79
2021/11/28 07:00:56;;;;;;;24.25;15.75;;;;;;;8.60;100.00;99321.00;1711988;82;21345;-79
2021/11/28 07:04:02;;;;;;;23.22;15.40;;;;;;;8.60;100.00;99327.81;1735121;82;21272;-79
2021/11/28 07:07:09;;;;;;;23.60;15.28;;;;;;;8.57;100.00;99329.58;1696777;82;21792;-80
2021/11/28 07:10:17;;;;;;;26.60;14.15;;;;;;;8.58;100.00;99330.73;1713703;83;21204;-80
2021/11/28 07:13:25;;;;;;;20.12;13.22;;;;;;;8.67;100.00;99335.59;1717713;82;21203;-79
2021/11/28 07:16:33;;;;;;;18.25;12.43;;;;;;;8.68;100.00;99329.09;1738842;80;21350;-79
2021/11/28 07:19:41;;;;;;;18.20;13.55;;;;;;;8.74;100.00;99328.85;1726904;82;21217;-80
2021/11/28 07:22:50;;;;;;;18.45;13.13;;;;;;;8.75;100.00;99334.14;1710914;83;21257;-79
2021/11/28 07:25:56;;;;;;;20.97;12.63;;;;;;;8.73;100.00;99341.64;1702559;82;21647;-80
2021/11/28 07:29:06;;;;;;;16.30;12.18;;;;;;;8.74;100.00;99331.58;1715217;82;21721;-80
2021/11/28 07:32:14;;;;;;;21.68;13.20;;;;;;;8.75;100.00;99335.50;1716448;83;21182;-80
2021/11/28 07:35:24;;;;;;;19.75;13.05;;;;;;;8.77;100.00;99340.23;1716814;82;21233;-79
2021/11/28 07:38:32;;;;;;;16.32;11.00;;;;;;;8.73;100.00;99343.53;1718906;82;21905;-79
2021/11/28 07:41:38;;;;;;;19.23;12.53;;;;;;;8.74;100.00;99350.66;1725403;81;21277;-79
2021/11/28 07:44:50;;;;;;;22.35;14.85;;;;;;;8.78;100.00;99346.53;1718425;83;21379;-79
2021/11/28 07:48:14;;;;;;;18.92;13.48;;;;;;;8.84;100.00;99338.95;1735885;81;21213;-79
2021/11/28 07:51:24;;;;;;;25.43;16.02;;;;;;;8.87;100.00;99345.41;1715996;81;21844;-79
2021/11/28 07:54:33;;;;;;;22.40;15.60;;;;;;;8.85;100.00;99340.67;1701560;83;21314;-79
2021/11/28 07:57:41;;;;;;;27.80;16.93;;;;;;;8.84;100.00;99334.86;1684902;83;21319;-79
2021/11/28 08:01:06;;;;;;;25.23;15.98;;;;;;;8.84;100.00;99328.89;1714947;82;21244;-80
2021/11/28 08:04:13;;;;;;;25.97;16.32;;;;;;;8.85;100.00;99325.15;1713623;83;21306;-78
2021/11/28 08:07:32;;;;;;;25.37;16.73;;;;;;;8.87;100.00;99327.16;1655802;84;21484;-79
2021/11/28 08:10:41;;;;;;;23.83;14.93;;;;;;;8.84;100.00;99319.34;1688253;85;21246;-79
2021/11/28 08:13:48;;;;;;;22.32;14.73;;;;;;;8.82;100.00;99322.79;1725251;82;21244;-79
2021/11/28 08:16:54;;;;;;;21.80;14.93;;;;;;;8.87;100.00;99327.67;1725017;82;21331;-79
2021/11/28 08:20:01;;;;;;;21.27;15.80;;;;;;;8.89;100.00;99326.95;1682178;83;21877;-79
2021/11/28 08:23:07;;;;;;;21.00;15.10;;;;;;;8.96;100.00;99328.75;1694178;83;21349;-79
2021/11/28 08:26:13;;;;;;;17.32;14.10;;;;;;;9.05;100.00;99324.56;1727280;82;21298;-79
2021/11/28 08:29:18;;;;;;;18.95;12.58;;;;;;;9.08;100.00;99326.40;1719893;82;21900;-80
2021/11/28 08:32:26;;;;;;;22.00;14.05;;;;;;;9.08;100.00;99318.70;1736704;81;21250;-80
2021/11/28 08:35:50;;;;;;;20.62;13.60;;;;;;;9.04;100.00;99310.60;1705590;83;21353;-80
2021/11/28 08:39:00;;;;;;;20.20;12.88;;;;;;;9.07;100.00;99307.47;1725704;81;21896;-79
2021/11/28 08:42:08;;;;;;;24.80;13.83;;;;;;;9.12;100.00;99312.67;1728224;81;21338;-79
2021/11/28 08:45:17;;;;;;;16.23;11.48;;;;;;;9.21;100.00;99329.78;1708898;82;21965;-78
2021/11/28 08:48:23;;;;;;;14.00;11.20;;;;;;;9.26;100.00;99326.48;1680940;84;21318;-78
2021/11/28 08:51:30;;;;;;;20.32;13.60;;;;;;;9.26;100.00;99341.49;1749974;81;21334;-79
2021/11/28 08:54:35;;;;;;;15.83;12.03;;;;;;;9.22;100.00;99342.38;1696939;84;21159;-79
2021/11/28 08:57:40;;;;;;;16.95;12.07;;;;;;;9.21;100.00;99344.27;1714251;81;21208;-79
2021/11/28 09:00:47;;;;;;;16.25;10.88;;;;;;;9.18;100.00;99340.58;1719858;83;21245;-79
2021/11/28 09:03:54;;;;;;;18.52;13.10;;;;;;;9.13;100.00;99337.58;1685526;83;21230;-79
2021/11/28 09:06:58;;;;;;;18.50;10.63;;;;;;;9.08;100.00;99333.70;1720024;82;21341;-79
2021/11/28 09:10:05;;;;;;;17.23;12.00;;;;;;;9.12;100.00;99324.11;1725369;82;21856;-79
2021/11/28 09:13:11;;;;;;;20.52;11.03;;;;;;;9.17;100.00;99326.62;1734943;82;21824;-79
2021/11/28 09:16:16;;;;;;;14.50;10.78;;;;;;;9.23;100.00;99329.09;1717658;82;21265;-79
2021/11/28 09:19:33;;;;;;;14.18;11.18;;;;;;;9.20;100.00;99334.40;1728741;81;21357;-80
2021/11/28 09:24:26;;;;;;;11.73;8.83;;;;;;;9.13;100.00;99334.01;1708629;84;21341;-80
2021/11/28 09:25:41;;;;;;;15.15;10.05;;;;;;;9.07;100.00;99336.11;1724786;83;21179;-80
2021/11/28 09:28:49;;;;;;;15.10;10.38;;;;;;;9.02;100.00;99338.57;1717155;82;21861;-80
2021/11/28 09:31:55;;;;;;;12.63;9.55;;;;;;;8.94;100.00;99324.02;1715906;83;21270;-80
2021/11/28 09:35:02;;;;;;;16.97;12.43;;;;;;;8.91;100.00;99337.18;1718832;83;21371;-78
2021/11/28 09:38:09;;;;;;;17.10;10.68;;;;;;;8.88;100.00;99338.39;1716807;82;21809;-78
2021/11/28 09:41:18;;;;;;;60.17;31.48;;;;;;;8.94;100.00;99334.08;1685438;83;21379;-79
2021/11/28 09:44:24;;;;;;;62.10;32.50;;;;;;;8.99;100.00;99332.12;1684336;83;21704;-79
2021/11/28 09:47:29;;;;;;;25.00;17.10;;;;;;;9.02;100.00;99334.48;1724795;81;21321;-78
2021/11/28 09:50:35;;;;;;;18.73;12.65;;;;;;;9.01;100.00;99331.43;1697617;84;21278;-79
2021/11/28 09:53:44;;;;;;;18.32;11.20;;;;;;;8.95;100.00;99331.16;1704747;83;21215;-79
2021/11/28 09:56:50;;;;;;;17.92;11.10;;;;;;;8.96;100.00;99336.94;1737128;82;21234;-78
2021/11/28 09:59:52;;;;;;;16.90;11.03;;;;;;;8.99;100.00;99330.75;1733815;82;21853;-78
2021/11/28 10:02:58;;;;;;;19.52;11.00;;;;;;;8.96;100.00;99328.75;1696451;83;21885;-78
2021/11/28 10:06:04;;;;;;;18.67;11.40;;;;;;;8.95;100.00;99339.34;1696110;83;21810;-79
2021/11/28 10:09:13;;;;;;;18.25;11.57;;;;;;;8.94;100.00;99343.11;1696914;84;21323;-78
2021/11/28 10:12:33;;;;;;;16.10;10.15;;;;;;;8.98;100.00;99341.34;1701295;83;21196;-79
2021/11/28 10:15:40;;;;;;;16.70;11.18;;;;;;;9.06;100.00;99329.81;1727156;83;21207;-81
2021/11/28 10:18:45;;;;;;;14.65;10.23;;;;;;;9.14;100.00;99311.14;1706707;83;21752;-79
2021/11/28 10:21:51;;;;;;;22.40;11.20;;;;;;;9.15;100.00;99302.76;1697051;83;21883;-78
2021/11/28 10:25:04;;;;;;;13.53;9.40;;;;;;;9.19;100.00;99304.59;1684798;83;21425;-78
2021/11/28 10:28:14;;;;;;;19.25;13.00;;;;;;;9.19;100.00;99303.22;1699602;84;21178;-78
2021/11/28 10:31:28;;;;;;;18.75;11.55;;;;;;;9.20;100.00;99300.81;1685802;82;21371;-78
2021/11/28 10:34:36;;;;;;;14.00;10.23;;;;;;;9.19;100.00;99288.22;1692639;84;21169;-79
2021/11/28 10:37:44;;;;;;;41.18;26.07;;;;;;;9.18;100.00;99280.55;1728940;83;21239;-78
2021/11/28 10:40:52;;;;;;;69.20;35.98;;;;;;;9.19;100.00;99276.78;1709317;83;21214;-78
2021/11/28 10:43:58;;;;;;;20.40;13.93;;;;;;;9.27;100.00;99273.11;1726088;83;21222;-79
2021/11/28 10:47:20;;;;;;;19.23;11.97;;;;;;;9.31;100.00;99274.38;1730424;81;21414;-79
2021/11/28 10:50:37;;;;;;;15.72;11.30;;;;;;;9.29;100.00;99269.65;1699637;84;21340;-79
2021/11/28 10:53:43;;;;;;;39.40;24.37;;;;;;;9.23;100.00;99264.97;1697344;84;21934;-78
2021/11/28 10:56:49;;;;;;;30.55;20.10;;;;;;;9.26;100.00;99261.84;1698308;84;21864;-79
2021/11/28 11:00:03;;;;;;;29.48;19.67;;;;;;;9.32;100.00;99254.27;1698827;84;21376;-79
2021/11/28 11:03:32;;;;;;;22.50;12.80;;;;;;;9.34;100.00;99254.91;1697486;84;21356;-80
2021/11/28 11:06:38;;;;;;;17.00;12.50;;;;;;;9.36;100.00;99255.57;1728011;83;21359;-80
2021/11/28 11:09:50;;;;;;;29.55;19.02;;;;;;;9.38;100.00;99266.28;1726445;83;21226;-79
2021/11/28 11:12:57;;;;;;;38.17;25.05;;;;;;;9.43;100.00;99268.75;1726990;83;21317;-79
2021/11/28 11:16:08;;;;;;;28.90;18.02;;;;;;;9.51;100.00;99262.85;1726194;83;21197;-78
2021/11/28 11:19:51;;;;;;;40.73;25.10;;;;;;;9.58;100.00;99248.73;1697773;84;21243;-79
2021/11/28 11:22:57;;;;;;;55.60;32.05;;;;;;;9.66;100.00;99248.08;1697534;84;21385;-79
2021/11/28 11:26:04;;;;;;;56.53;30.80;;;;;;;9.73;100.00;99249.49;1693160;84;21893;-79
2021/11/28 11:29:15;;;;;;;52.53;30.95;;;;;;;9.71;100.00;99255.69;1686351;85;21310;-79
2021/11/28 11:32:20;;;;;;;64.97;35.40;;;;;;;9.70;100.00;99256.73;1687053;83;21321;-79
2021/11/28 11:35:32;;;;;;;55.30;32.08;;;;;;;9.75;100.00;99247.95;1687782;85;21841;-79
2021/11/28 11:38:36;;;;;;;84.22;46.02;;;;;;;9.79;100.00;99254.19;1687907;85;21282;-79
2021/11/28 11:41:42;;;;;;;86.57;43.78;;;;;;;9.82;100.00;99251.56;1687736;85;21310;-79
2021/11/28 11:44:49;;;;;;;73.95;39.33;;;;;;;9.84;100.00;99253.59;1686711;85;21397;-80
2021/11/28 11:47:55;;;;;;;83.92;45.58;;;;;;;9.89;100.00;99260.16;1655431;85;21204;-80
2021/11/28 11:51:01;;;;;;;79.77;37.50;;;;;;;9.91;100.00;99262.15;1687779;85;21873;-80
2021/11/28 11:54:06;;;;;;;66.12;34.30;;;;;;;9.88;100.00;99257.10;1687111;85;21643;-80
2021/11/28 11:57:40;;;;;;;69.67;31.82;;;;;;;9.85;100.00;99249.81;1686368;84;21220;-79
2021/11/28 12:01:08;;;;;;;61.75;30.48;;;;;;;9.80;100.00;99253.14;1687861;85;21320;-80
2021/11/28 12:04:16;;;;;;;47.27;27.82;;;;;;;9.81;100.00;99249.88;1686989;85;21243;-79
2021/11/28 12:07:22;;;;;;;42.15;24.35;;;;;;;9.81;100.00;99246.63;1687847;85;21322;-80
2021/11/28 12:10:53;;;;;;;30.05;19.25;;;;;;;9.77;100.00;99238.50;1686644;85;21362;-80
2021/11/28 12:14:03;;;;;;;27.27;16.10;;;;;;;9.72;100.00;99246.44;1686843;85;21765;-79
2021/11/28 12:17:12;;;;;;;28.75;18.60;;;;;;;9.65;100.00;99251.02;1688071;85;21212;-79
2021/11/28 12:20:17;;;;;;;30.05;17.32;;;;;;;9.60;100.00;99250.77;1662547;85;21306;-79
2021/11/28 12:24:06;;;;;;;32.90;23.30;;;;;;;9.59;100.00;99251.25;1688535;85;21793;-79
2021/11/28 12:27:10;;;;;;;25.92;15.35;;;;;;;9.57;100.00;99248.41;1684382;83;21243;-79
2021/11/28 12:30:41;;;;;;;39.55;22.30;;;;;;;9.56;100.00;99256.28;1703945;84;21307;-79
2021/11/28 12:34:06;;;;;;;39.27;18.92;;;;;;;9.59;100.00;99250.41;1703872;84;21854;-79
2021/11/28 12:37:15;;;;;;;31.55;18.07;;;;;;;9.64;100.00;99247.94;1704040;84;21373;-79
2021/11/28 12:40:27;;;;;;;35.35;19.52;;;;;;;9.65;100.00;99245.03;1703432;84;21276;-79
2021/11/28 12:43:32;;;;;;;43.63;22.77;;;;;;;9.67;100.00;99253.02;1704851;84;21435;-79
2021/11/28 12:46:51;;;;;;;50.92;26.45;;;;;;;9.68;100.00;99248.72;1702793;84;21909;-79
2021/11/28 12:50:24;;;;;;;48.05;25.40;;;;;;;9.71;100.00;99257.89;1704244;84;21263;-79
2021/11/28 12:53:40;;;;;;;54.90;32.03;;;;;;;9.73;100.00;99259.05;1704257;84;21334;-79
2021/11/28 12:56:46;;;;;;;54.25;30.82;;;;;;;9.76;100.00;99260.03;1704266;84;21236;-79
2021/11/28 13:00:30;;;;;;;48.13;29.72;;;;;;;9.78;100.00;99270.23;1704173;84;21360;-79
2021/11/28 13:03:36;;;;;;;42.00;25.92;;;;;;;9.82;100.00;99271.52;1704238;84;21533;-79
2021/11/28 13:06:43;;;;;;;35.15;21.50;;;;;;;9.86;100.00;99267.89;1704386;84;21362;-79
2021/11/28 13:09:54;;;;;;;31.75;18.25;;;;;;;9.87;100.00;99263.58;1702672;83;21774;-79
2021/11/28 13:12:57;;;;;;;27.85;16.25;;;;;;;9.89;100.00;99261.52;1703958;84;21221;-80
2021/11/28 13:16:07;;;;;;;22.10;13.30;;;;;;;9.89;100.00;99253.84;1702878;84;21888;-80
2021/11/28 13:19:13;;;;;;;21.80;14.80;;;;;;;9.90;100.00;99253.64;1703045;84;21331;-80
2021/11/28 13:22:36;;;;;;;23.73;14.38;;;;;;;9.90;100.00;99246.81;1704189;84;21833;-80
2021/11/28 13:26:02;;;;;;;21.20;13.28;;;;;;;9.88;100.00;99243.94;1689621;84;21914;-80
2021/11/28 13:29:13;;;;;;;24.60;13.60;;;;;;;9.87;100.00;99233.54;1707445;82;21228;-80
2021/11/28 13:32:21;;;;;;;17.10;12.65;;;;;;;9.84;100.00;99246.25;1642505;87;21393;-80
2021/11/28 13:35:26;;;;;;;86.45;42.98;;;;;;;9.80;100.00;99243.58;1707700;84;21756;-80
2021/11/28 13:38:36;;;;;;;236.57;95.32;;;;;;;9.79;100.00;99245.16;1708576;84;21759;-80
2021/11/28 13:41:40;;;;;;;110.48;61.23;;;;;;;9.76;100.00;99236.82;1641311;87;21401;-80
2021/11/28 13:44:47;;;;;;;81.05;46.70;;;;;;;9.75;100.00;99232.41;1707415;84;21236;-80
2021/11/28 13:47:58;;;;;;;28.67;18.73;;;;;;;9.72;100.00;99239.09;1708175;84;21358;-80
2021/11/28 13:51:05;;;;;;;31.87;18.52;;;;;;;9.71;100.00;99241.50;1642364;87;21334;-80
2021/11/28 13:54:11;;;;;;;24.00;15.25;;;;;;;9.67;100.00;99242.09;1708147;84;21302;-79
2021/11/28 13:57:18;;;;;;;33.40;18.48;;;;;;;9.66;100.00;99235.80;1708480;84;21330;-79
2021/11/28 14:00:25;;;;;;;33.53;21.42;;;;;;;9.62;100.00;99224.09;1668071;86;21378;-79
2021/11/28 14:03:31;;;;;;;41.53;23.47;;;;;;;9.58;100.00;99217.34;1667113;86;21870;-79
2021/11/28 14:06:37;;;;;;;35.48;21.10;;;;;;;9.54;100.00;99221.49;1665185;86;21372;-79
2021/11/28 14:09:49;;;;;;;30.62;18.70;;;;;;;9.48;100.00;99211.69;1669566;86;21228;-79
2021/11/28 14:12:58;;;;;;;28.47;18.07;;;;;;;9.45;100.00;99222.98;1669264;86;21378;-78
2021/11/28 14:16:04;;;;;;;36.58;18.82;;;;;;;9.43;100.00;99215.52;1669022;86;21236;-78
2021/11/28 14:19:09;;;;;;;34.20;21.93;;;;;;;9.42;100.00;99212.48;1669762;86;21383;-79
2021/11/28 14:22:42;;;;;;;35.30;19.15;;;;;;;9.45;100.00;99208.49;1669653;86;21330;-79
2021/11/28 14:25:54;;;;;;;57.80;30.05;;;;;;;9.47;100.00;99210.00;1668885;86;21304;-79
2021/11/28 14:29:02;;;;;;;57.67;31.75;;;;;;;9.50;100.00;99197.83;1678274;83;21358;-79
2021/11/28 14:32:09;;;;;;;56.23;31.97;;;;;;;9.52;100.00;99203.95;1729164;83;21334;-79
2021/11/28 14:35:31;;;;;;;68.10;37.60;;;;;;;9.54;100.00;99199.66;1728507;83;22617;-79